East Corinth, ME

6:06 AM EDT on May 25, 2015 (GMT -0400)
Stonyvale Farms | | Change Station
CLOSE
Current Station
Personal Weather Station
Location: Exeter, ME
Elevation: 269 ft
Nearby Weather Stations

Elev 269 ft 44.95 °N, 69.12 °W | Updated 11 minutes ago

Mostly Cloudy
Mostly Cloudy
59.8 °F
Feels Like 59.8 °F
N
1.0
Wind Variable Wind from SSW
Gusts 6.0 mph

Today
High -- | Low -- °F
--% Chance of Precip.
Yesterday
High -- | Low -- °F
Precip. -- in
4:57 AM 8:08 PM
Waxing Crescent, 47% visible
Pressure 30.12 in
Visibility 10.0 miles
Clouds Scattered Clouds 18000 ft
Mostly Cloudy 25000 ft
Dew Point 47 °F
Humidity 63%
Rainfall 0.00 in
Snow Depth Not available.
UV 0 out of 12
Pollen 10.10 out of 12
Air Quality Not available.
Flu Activity Local Activity
METAR KBGR 250953Z 00000KT 10SM SCT180 BKN250 14/08 A3012 RMK AO2 SLP198 T01440083

More Conditions Fewer Conditions

Pressure 30.12 in
Visibility 10.0 miles
Clouds Scattered Clouds 18000 ft
Mostly Cloudy 25000 ft
Dew Point 47 °F
Humidity 63%
Rainfall 0.00 in
Snow Depth Not available.
UV 0 out of 12
Pollen 10.10 out of 12
Air Quality Not available.
Flu Activity Local Activity
METAR KBGR 250953Z 00000KT 10SM SCT180 BKN250 14/08 A3012 RMK AO2 SLP198 T01440083

More Conditions Fewer Conditions

10-Day Weather Forecast

Almanac

Astronomy

May. 25, 2015 Rise Set
Actual Time
Civil Twilight
Nautical Twilight
Astronomical Twilight
Moon
Length of Visible Light
Length of Day
Tomorrow will be .
, % of the Moon is Illuminated

Today's Extremes

State Highs State Lows

Community

WunderPhotos

Upload Photos

1,823,970 photos uploaded!

WunderBlogs® & News

Nearby

Air Quality

  Air Quality AQ Index Pollutant
Not available.

Snow Depth

Station Depth Elevation

Earthquake Activity

City Distance Mag. Time & Date
Minimum magnitude displayed is 2.5.

Coastal Water Temperatures

Place Temperature

Stations

Nearby Weather Stations

Station Location Temp. Windchill Dew Point Humidity Wind Precip. Elev Updated Type